createdAt,value
2023-12-02T00:11:19.888Z,493
2023-12-02T00:26:19.907Z,492
2023-12-02T00:41:19.899Z,492
2023-12-02T00:56:19.931Z,491
2023-12-02T01:11:19.964Z,492
2023-12-02T01:26:19.960Z,492
2023-12-02T01:41:19.903Z,491
2023-12-02T01:56:19.987Z,491
2023-12-02T02:11:19.901Z,491
2023-12-02T02:26:19.944Z,490
2023-12-02T02:41:19.911Z,490
2023-12-02T02:56:19.967Z,490
2023-12-02T03:11:19.942Z,490
2023-12-02T03:26:20.025Z,490
2023-12-02T03:41:19.976Z,490
2023-12-02T03:56:19.968Z,489
2023-12-02T04:11:19.934Z,489
2023-12-02T04:26:19.951Z,489
2023-12-02T04:41:19.947Z,488
2023-12-02T04:56:20.002Z,488
2023-12-02T05:11:19.974Z,488
2023-12-02T05:26:19.981Z,487
2023-12-02T05:41:19.945Z,487
2023-12-02T05:56:19.980Z,487
2023-12-02T06:11:19.985Z,486
2023-12-02T06:26:19.989Z,486
2023-12-02T06:41:19.948Z,486
2023-12-02T06:56:19.988Z,486
2023-12-02T07:11:20.002Z,485
2023-12-02T07:26:19.981Z,484
2023-12-02T07:41:19.959Z,484
2023-12-02T07:56:19.964Z,484
2023-12-02T08:11:19.994Z,483
2023-12-02T08:26:20.058Z,484
2023-12-02T08:41:20.013Z,483
2023-12-02T08:56:20.034Z,483
2023-12-02T09:11:20.025Z,483
2023-12-02T09:26:19.986Z,483
2023-12-02T09:41:19.981Z,482
2023-12-02T09:56:21.019Z,482
2023-12-02T10:11:20.022Z,482
2023-12-02T10:26:20.037Z,482
2023-12-02T10:41:19.993Z,481
2023-12-02T10:56:19.995Z,481
2023-12-02T11:11:19.984Z,480
2023-12-02T11:26:20.002Z,480
2023-12-02T11:41:20.004Z,479
2023-12-02T11:56:20.028Z,479
2023-12-02T12:11:19.991Z,479
2023-12-02T12:26:20.014Z,479
2023-12-02T12:41:20.004Z,479
2023-12-02T12:56:19.990Z,478
2023-12-02T13:11:22.442Z,478
2023-12-02T13:26:20.037Z,477
2023-12-02T13:41:20.009Z,477
2023-12-02T13:56:20.031Z,476
2023-12-02T14:11:20.040Z,476
2023-12-02T14:26:20.039Z,476
2023-12-02T14:41:20.025Z,476
2023-12-02T14:56:20.042Z,475
2023-12-02T15:11:20.081Z,476
2023-12-02T15:26:20.040Z,474
2023-12-02T15:41:20.026Z,475
2023-12-02T15:56:20.091Z,474
2023-12-02T16:11:20.071Z,474
2023-12-02T16:26:20.085Z,474
2023-12-02T16:41:20.056Z,473
2023-12-02T16:56:21.658Z,474
2023-12-02T17:11:20.075Z,474
2023-12-02T17:26:20.041Z,473
2023-12-02T17:41:20.174Z,473
2023-12-02T17:56:20.029Z,473
2023-12-02T18:11:20.072Z,472
2023-12-02T18:26:20.065Z,471
2023-12-02T18:41:20.039Z,472
2023-12-02T18:56:20.063Z,472
2023-12-02T19:11:20.080Z,471
2023-12-02T19:26:20.083Z,470
2023-12-02T19:41:20.056Z,470
2023-12-02T19:56:20.092Z,470
2023-12-02T20:11:20.071Z,470
2023-12-02T20:26:20.103Z,469
2023-12-02T20:41:20.050Z,469
2023-12-02T20:56:20.066Z,469
2023-12-02T21:11:20.091Z,468
2023-12-02T21:26:20.085Z,468
2023-12-02T21:41:20.071Z,469
2023-12-02T21:56:20.113Z,469
2023-12-02T22:11:20.117Z,468
2023-12-02T22:26:20.065Z,468
2023-12-02T22:41:20.080Z,467
2023-12-02T22:56:20.064Z,467
2023-12-02T23:11:20.096Z,467
2023-12-02T23:26:20.130Z,467
2023-12-02T23:41:20.085Z,467
2023-12-02T23:56:20.114Z,466
